sensor_id;sensor_type;location;lat;lon;timestamp;temperature;humidity
37086;DHT22;23001;45.952;12.676;2022-11-11T00:02:17;9.60;99.90
37086;DHT22;23001;45.952;12.676;2022-11-11T00:04:43;9.60;99.90
37086;DHT22;23001;45.952;12.676;2022-11-11T00:07:09;9.70;99.90
37086;DHT22;23001;45.952;12.676;2022-11-11T00:09:35;9.60;99.90
37086;DHT22;23001;45.952;12.676;2022-11-11T00:12:00;9.60;99.90
37086;DHT22;23001;45.952;12.676;2022-11-11T00:14:26;9.60;99.90
37086;DHT22;23001;45.952;12.676;2022-11-11T00:16:52;9.60;99.90
37086;DHT22;23001;45.952;12.676;2022-11-11T00:19:36;9.60;99.90
37086;DHT22;23001;45.952;12.676;2022-11-11T00:22:21;9.70;99.90
37086;DHT22;23001;45.952;12.676;2022-11-11T00:25:06;9.70;99.90
37086;DHT22;23001;45.952;12.676;2022-11-11T00:27:33;9.70;99.90
37086;DHT22;23001;45.952;12.676;2022-11-11T00:29:59;9.70;99.90
37086;DHT22;23001;45.952;12.676;2022-11-11T00:32:24;9.60;99.90
37086;DHT22;23001;45.952;12.676;2022-11-11T00:34:56;9.60;99.90
37086;DHT22;23001;45.952;12.676;2022-11-11T00:37:42;9.60;99.90
37086;DHT22;23001;45.952;12.676;2022-11-11T00:40:09;9.70;99.90
37086;DHT22;23001;45.952;12.676;2022-11-11T00:42:35;9.70;99.90
37086;DHT22;23001;45.952;12.676;2022-11-11T00:45:01;9.70;99.90
37086;DHT22;23001;45.952;12.676;2022-11-11T00:47:27;9.70;99.90
37086;DHT22;23001;45.952;12.676;2022-11-11T00:50:14;9.60;99.90
37086;DHT22;23001;45.952;12.676;2022-11-11T00:52:59;9.60;99.90
37086;DHT22;23001;45.952;12.676;2022-11-11T00:55:25;9.50;99.90
37086;DHT22;23001;45.952;12.676;2022-11-11T00:57:51;9.40;99.90
37086;DHT22;23001;45.952;12.676;2022-11-11T01:00:16;9.40;99.90
37086;DHT22;23001;45.952;12.676;2022-11-11T01:02:42;9.40;99.90
37086;DHT22;23001;45.952;12.676;2022-11-11T01:05:08;9.50;99.90
37086;DHT22;23001;45.952;12.676;2022-11-11T01:07:34;9.50;99.90
37086;DHT22;23001;45.952;12.676;2022-11-11T01:09:59;9.40;99.90
37086;DHT22;23001;45.952;12.676;2022-11-11T01:12:25;9.40;99.90
37086;DHT22;23001;45.952;12.676;2022-11-11T01:14:51;9.30;99.90
37086;DHT22;23001;45.952;12.676;2022-11-11T01:17:18;9.30;99.90
37086;DHT22;23001;45.952;12.676;2022-11-11T01:19:44;9.40;99.90
37086;DHT22;23001;45.952;12.676;2022-11-11T01:22:10;9.30;99.90
37086;DHT22;23001;45.952;12.676;2022-11-11T01:24:36;9.40;99.90
37086;DHT22;23001;45.952;12.676;2022-11-11T01:27:03;9.40;99.90
37086;DHT22;23001;45.952;12.676;2022-11-11T01:29:29;9.30;99.90
37086;DHT22;23001;45.952;12.676;2022-11-11T01:31:54;9.20;99.90
37086;DHT22;23001;45.952;12.676;2022-11-11T01:34:20;9.20;99.90
37086;DHT22;23001;45.952;12.676;2022-11-11T01:36:46;9.30;99.90
37086;DHT22;23001;45.952;12.676;2022-11-11T01:39:12;9.30;99.90
37086;DHT22;23001;45.952;12.676;2022-11-11T01:41:37;9.30;99.90
37086;DHT22;23001;45.952;12.676;2022-11-11T01:46:59;9.20;99.90
37086;DHT22;23001;45.952;12.676;2022-11-11T01:49:49;9.20;99.90
37086;DHT22;23001;45.952;12.676;2022-11-11T01:52:38;9.20;99.90
37086;DHT22;23001;45.952;12.676;2022-11-11T01:58:08;9.20;99.90
37086;DHT22;23001;45.952;12.676;2022-11-11T02:00:35;9.20;99.90
37086;DHT22;23001;45.952;12.676;2022-11-11T02:03:07;9.30;99.90
37086;DHT22;23001;45.952;12.676;2022-11-11T02:05:33;9.10;99.90
37086;DHT22;23001;45.952;12.676;2022-11-11T02:08:19;9.10;99.90
37086;DHT22;23001;45.952;12.676;2022-11-11T02:11:14;9.00;99.90
37086;DHT22;23001;45.952;12.676;2022-11-11T02:14:01;8.90;99.90
37086;DHT22;23001;45.952;12.676;2022-11-11T02:16:46;8.90;99.90
37086;DHT22;23001;45.952;12.676;2022-11-11T02:19:13;8.90;99.90
37086;DHT22;23001;45.952;12.676;2022-11-11T02:21:46;8.90;99.90
37086;DHT22;23001;45.952;12.676;2022-11-11T02:24:17;8.90;99.90
37086;DHT22;23001;45.952;12.676;2022-11-11T02:26:45;9.00;99.90
37086;DHT22;23001;45.952;12.676;2022-11-11T02:29:15;9.10;99.90
37086;DHT22;23001;45.952;12.676;2022-11-11T02:31:41;9.10;99.90
37086;DHT22;23001;45.952;12.676;2022-11-11T02:34:07;9.10;99.90
37086;DHT22;23001;45.952;12.676;2022-11-11T02:36:33;9.00;99.90
37086;DHT22;23001;45.952;12.676;2022-11-11T02:38:59;9.00;99.90
37086;DHT22;23001;45.952;12.676;2022-11-11T02:41:25;9.10;99.90
37086;DHT22;23001;45.952;12.676;2022-11-11T02:44:09;9.10;99.90
37086;DHT22;23001;45.952;12.676;2022-11-11T02:46:35;9.10;99.90
37086;DHT22;23001;45.952;12.676;2022-11-11T02:49:00;9.30;99.90
37086;DHT22;23001;45.952;12.676;2022-11-11T02:51:26;9.20;99.90
37086;DHT22;23001;45.952;12.676;2022-11-11T02:53:52;9.20;99.90
37086;DHT22;23001;45.952;12.676;2022-11-11T02:56:23;9.20;99.90
37086;DHT22;23001;45.952;12.676;2022-11-11T02:59:07;9.20;99.90
37086;DHT22;23001;45.952;12.676;2022-11-11T03:01:33;9.20;99.90
37086;DHT22;23001;45.952;12.676;2022-11-11T03:03:59;9.10;99.90
37086;DHT22;23001;45.952;12.676;2022-11-11T03:06:25;9.00;99.90
37086;DHT22;23001;45.952;12.676;2022-11-11T03:08:50;9.00;99.90
37086;DHT22;23001;45.952;12.676;2022-11-11T03:11:16;9.00;99.90
37086;DHT22;23001;45.952;12.676;2022-11-11T03:13:56;8.90;99.90
37086;DHT22;23001;45.952;12.676;2022-11-11T03:16:22;8.80;99.90
37086;DHT22;23001;45.952;12.676;2022-11-11T03:19:07;8.80;99.90
37086;DHT22;23001;45.952;12.676;2022-11-11T03:21:32;8.90;99.90
37086;DHT22;23001;45.952;12.676;2022-11-11T03:23:58;8.90;99.90
37086;DHT22;23001;45.952;12.676;2022-11-11T03:26:24;8.90;99.90
37086;DHT22;23001;45.952;12.676;2022-11-11T03:28:50;8.90;99.90
37086;DHT22;23001;45.952;12.676;2022-11-11T03:31:15;8.90;99.90
37086;DHT22;23001;45.952;12.676;2022-11-11T03:33:41;8.90;99.90
37086;DHT22;23001;45.952;12.676;2022-11-11T03:36:07;8.90;99.90
37086;DHT22;23001;45.952;12.676;2022-11-11T03:38:33;8.90;99.90
37086;DHT22;23001;45.952;12.676;2022-11-11T03:40:59;8.80;99.90
37086;DHT22;23001;45.952;12.676;2022-11-11T03:43:30;8.80;99.90
37086;DHT22;23001;45.952;12.676;2022-11-11T03:45:58;8.70;99.90
37086;DHT22;23001;45.952;12.676;2022-11-11T03:48:25;8.90;99.90
37086;DHT22;23001;45.952;12.676;2022-11-11T03:50:51;8.90;99.90
37086;DHT22;23001;45.952;12.676;2022-11-11T03:53:18;8.80;99.90
37086;DHT22;23001;45.952;12.676;2022-11-11T03:55:48;8.70;99.90
37086;DHT22;23001;45.952;12.676;2022-11-11T03:58:15;8.70;99.90
37086;DHT22;23001;45.952;12.676;2022-11-11T04:00:41;8.60;99.90
37086;DHT22;23001;45.952;12.676;2022-11-11T04:03:18;8.70;99.90
37086;DHT22;23001;45.952;12.676;2022-11-11T04:06:03;8.70;99.90
37086;DHT22;23001;45.952;12.676;2022-11-11T04:08:47;8.70;99.90
37086;DHT22;23001;45.952;12.676;2022-11-11T04:11:43;8.80;99.90
37086;DHT22;23001;45.952;12.676;2022-11-11T04:14:11;8.70;99.90
37086;DHT22;23001;45.952;12.676;2022-11-11T04:16:56;8.70;99.90
37086;DHT22;23001;45.952;12.676;2022-11-11T04:19:22;8.80;99.90
37086;DHT22;23001;45.952;12.676;2022-11-11T04:22:07;8.70;99.90
37086;DHT22;23001;45.952;12.676;2022-11-11T04:24:33;8.70;99.90
37086;DHT22;23001;45.952;12.676;2022-11-11T04:27:18;8.70;99.90
37086;DHT22;23001;45.952;12.676;2022-11-11T04:29:45;8.70;99.90
37086;DHT22;23001;45.952;12.676;2022-11-11T04:32:19;8.60;99.90
37086;DHT22;23001;45.952;12.676;2022-11-11T04:35:03;8.50;99.90
37086;DHT22;23001;45.952;12.676;2022-11-11T04:37:34;8.50;99.90
37086;DHT22;23001;45.952;12.676;2022-11-11T04:40:00;8.60;99.90
37086;DHT22;23001;45.952;12.676;2022-11-11T04:42:45;8.50;99.90
37086;DHT22;23001;45.952;12.676;2022-11-11T04:45:12;8.40;99.90
37086;DHT22;23001;45.952;12.676;2022-11-11T04:48:01;8.40;99.90
37086;DHT22;23001;45.952;12.676;2022-11-11T04:50:29;8.50;99.90
37086;DHT22;23001;45.952;12.676;2022-11-11T04:52:56;8.40;99.90
37086;DHT22;23001;45.952;12.676;2022-11-11T04:55:22;8.40;99.90
37086;DHT22;23001;45.952;12.676;2022-11-11T04:58:07;8.30;99.90
37086;DHT22;23001;45.952;12.676;2022-11-11T05:00:33;8.30;99.90
37086;DHT22;23001;45.952;12.676;2022-11-11T05:02:59;8.30;99.90
37086;DHT22;23001;45.952;12.676;2022-11-11T05:08:51;8.30;99.90
37086;DHT22;23001;45.952;12.676;2022-11-11T05:11:30;8.30;99.90
37086;DHT22;23001;45.952;12.676;2022-11-11T05:13:58;8.30;99.90
37086;DHT22;23001;45.952;12.676;2022-11-11T05:16:56;8.20;99.90
37086;DHT22;23001;45.952;12.676;2022-11-11T05:19:41;8.20;99.90
37086;DHT22;23001;45.952;12.676;2022-11-11T05:22:33;8.20;99.90
37086;DHT22;23001;45.952;12.676;2022-11-11T05:25:00;8.20;99.90
37086;DHT22;23001;45.952;12.676;2022-11-11T05:27:44;8.30;99.90
37086;DHT22;23001;45.952;12.676;2022-11-11T05:30:12;8.20;99.90
37086;DHT22;23001;45.952;12.676;2022-11-11T05:32:39;8.30;99.90
37086;DHT22;23001;45.952;12.676;2022-11-11T05:35:05;8.20;99.90
37086;DHT22;23001;45.952;12.676;2022-11-11T05:37:31;8.20;99.90
37086;DHT22;23001;45.952;12.676;2022-11-11T05:39:57;8.20;99.90
37086;DHT22;23001;45.952;12.676;2022-11-11T05:42:23;8.20;99.90
37086;DHT22;23001;45.952;12.676;2022-11-11T05:44:49;8.20;99.90
37086;DHT22;23001;45.952;12.676;2022-11-11T05:47:14;8.20;99.90
37086;DHT22;23001;45.952;12.676;2022-11-11T05:49:40;8.10;99.90
37086;DHT22;23001;45.952;12.676;2022-11-11T05:52:08;8.00;99.90
37086;DHT22;23001;45.952;12.676;2022-11-11T05:54:34;8.10;99.90
37086;DHT22;23001;45.952;12.676;2022-11-11T05:56:59;8.20;99.90
37086;DHT22;23001;45.952;12.676;2022-11-11T05:59:25;8.30;99.90
37086;DHT22;23001;45.952;12.676;2022-11-11T06:01:51;8.20;99.90
37086;DHT22;23001;45.952;12.676;2022-11-11T06:04:17;8.20;99.90
37086;DHT22;23001;45.952;12.676;2022-11-11T06:06:42;8.20;99.90
37086;DHT22;23001;45.952;12.676;2022-11-11T06:09:08;8.10;99.90
37086;DHT22;23001;45.952;12.676;2022-11-11T06:11:34;8.10;99.90
37086;DHT22;23001;45.952;12.676;2022-11-11T06:14:13;8.20;99.90
37086;DHT22;23001;45.952;12.676;2022-11-11T06:16:39;8.10;99.90
37086;DHT22;23001;45.952;12.676;2022-11-11T06:19:05;8.10;99.90
37086;DHT22;23001;45.952;12.676;2022-11-11T06:21:31;8.10;99.90
37086;DHT22;23001;45.952;12.676;2022-11-11T06:24:16;8.10;99.90
37086;DHT22;23001;45.952;12.676;2022-11-11T06:26:42;8.10;99.90
37086;DHT22;23001;45.952;12.676;2022-11-11T06:29:08;8.10;99.90
37086;DHT22;23001;45.952;12.676;2022-11-11T06:31:34;8.10;99.90
37086;DHT22;23001;45.952;12.676;2022-11-11T06:34:10;8.20;99.90
37086;DHT22;23001;45.952;12.676;2022-11-11T06:36:36;8.30;99.90
37086;DHT22;23001;45.952;12.676;2022-11-11T06:39:02;8.20;99.90
37086;DHT22;23001;45.952;12.676;2022-11-11T06:41:28;8.20;99.90
37086;DHT22;23001;45.952;12.676;2022-11-11T06:43:53;8.30;99.90
37086;DHT22;23001;45.952;12.676;2022-11-11T06:46:23;8.40;99.90
37086;DHT22;23001;45.952;12.676;2022-11-11T06:48:50;8.40;99.90
37086;DHT22;23001;45.952;12.676;2022-11-11T06:51:16;8.50;99.90
37086;DHT22;23001;45.952;12.676;2022-11-11T06:53:42;8.60;99.90
37086;DHT22;23001;45.952;12.676;2022-11-11T06:56:09;8.60;99.90
37086;DHT22;23001;45.952;12.676;2022-11-11T06:58:37;8.60;99.90
37086;DHT22;23001;45.952;12.676;2022-11-11T07:01:04;8.70;99.90
37086;DHT22;23001;45.952;12.676;2022-11-11T07:03:32;8.80;99.90
37086;DHT22;23001;45.952;12.676;2022-11-11T07:06:16;8.90;99.90
37086;DHT22;23001;45.952;12.676;2022-11-11T07:08:42;8.90;99.90
37086;DHT22;23001;45.952;12.676;2022-11-11T07:11:12;9.00;99.90
37086;DHT22;23001;45.952;12.676;2022-11-11T07:13:38;9.00;99.90
37086;DHT22;23001;45.952;12.676;2022-11-11T07:16:04;9.10;99.90
37086;DHT22;23001;45.952;12.676;2022-11-11T07:18:30;9.30;99.90
37086;DHT22;23001;45.952;12.676;2022-11-11T07:20:56;9.40;99.90
37086;DHT22;23001;45.952;12.676;2022-11-11T07:23:21;9.50;99.90
37086;DHT22;23001;45.952;12.676;2022-11-11T07:25:47;9.50;99.90
37086;DHT22;23001;45.952;12.676;2022-11-11T07:28:13;9.60;99.90
37086;DHT22;23001;45.952;12.676;2022-11-11T07:30:39;9.60;99.90
37086;DHT22;23001;45.952;12.676;2022-11-11T07:33:05;9.60;99.90
37086;DHT22;23001;45.952;12.676;2022-11-11T07:35:31;9.70;99.90
37086;DHT22;23001;45.952;12.676;2022-11-11T07:37:57;9.80;99.90
37086;DHT22;23001;45.952;12.676;2022-11-11T07:40:23;9.80;99.90
37086;DHT22;23001;45.952;12.676;2022-11-11T07:42:49;10.00;99.90
37086;DHT22;23001;45.952;12.676;2022-11-11T07:45:14;10.10;99.90
37086;DHT22;23001;45.952;12.676;2022-11-11T07:47:43;10.20;99.90
37086;DHT22;23001;45.952;12.676;2022-11-11T07:50:10;10.30;99.90
37086;DHT22;23001;45.952;12.676;2022-11-11T07:52:38;10.30;99.90
37086;DHT22;23001;45.952;12.676;2022-11-11T07:55:06;10.40;99.90
37086;DHT22;23001;45.952;12.676;2022-11-11T07:57:32;10.40;99.90
37086;DHT22;23001;45.952;12.676;2022-11-11T07:59:58;10.50;99.90
37086;DHT22;23001;45.952;12.676;2022-11-11T08:02:24;10.60;99.90
37086;DHT22;23001;45.952;12.676;2022-11-11T08:04:50;10.60;99.90
37086;DHT22;23001;45.952;12.676;2022-11-11T08:07:15;10.70;99.90
37086;DHT22;23001;45.952;12.676;2022-11-11T08:09:41;10.70;99.90
37086;DHT22;23001;45.952;12.676;2022-11-11T08:12:08;10.90;99.90
37086;DHT22;23001;45.952;12.676;2022-11-11T08:14:52;10.90;99.90
37086;DHT22;23001;45.952;12.676;2022-11-11T08:17:18;11.00;99.90
37086;DHT22;23001;45.952;12.676;2022-11-11T08:19:43;11.10;99.90
37086;DHT22;23001;45.952;12.676;2022-11-11T08:22:09;11.10;99.90
37086;DHT22;23001;45.952;12.676;2022-11-11T08:24:35;11.20;99.90
37086;DHT22;23001;45.952;12.676;2022-11-11T08:27:01;11.20;99.90
37086;DHT22;23001;45.952;12.676;2022-11-11T08:29:27;11.30;99.90
37086;DHT22;23001;45.952;12.676;2022-11-11T08:31:53;11.40;99.90
37086;DHT22;23001;45.952;12.676;2022-11-11T08:34:19;11.40;99.90
37086;DHT22;23001;45.952;12.676;2022-11-11T08:36:45;11.50;99.90
37086;DHT22;23001;45.952;12.676;2022-11-11T08:39:11;11.60;99.90
37086;DHT22;23001;45.952;12.676;2022-11-11T08:42:02;11.60;99.90
37086;DHT22;23001;45.952;12.676;2022-11-11T08:44:38;11.70;99.90
37086;DHT22;23001;45.952;12.676;2022-11-11T08:47:04;11.70;99.90
37086;DHT22;23001;45.952;12.676;2022-11-11T08:49:30;11.80;99.90
37086;DHT22;23001;45.952;12.676;2022-11-11T08:51:56;11.90;99.90
37086;DHT22;23001;45.952;12.676;2022-11-11T08:54:22;11.90;99.90
37086;DHT22;23001;45.952;12.676;2022-11-11T08:56:48;12.00;99.90
37086;DHT22;23001;45.952;12.676;2022-11-11T08:59:13;11.90;99.90
37086;DHT22;23001;45.952;12.676;2022-11-11T09:01:39;11.90;99.90
37086;DHT22;23001;45.952;12.676;2022-11-11T09:04:05;12.00;99.90
37086;DHT22;23001;45.952;12.676;2022-11-11T09:06:31;12.00;99.90
37086;DHT22;23001;45.952;12.676;2022-11-11T09:08:56;12.10;99.90
37086;DHT22;23001;45.952;12.676;2022-11-11T09:11:22;12.20;99.90
37086;DHT22;23001;45.952;12.676;2022-11-11T09:13:48;12.20;99.90
37086;DHT22;23001;45.952;12.676;2022-11-11T09:16:14;12.30;99.90
37086;DHT22;23001;45.952;12.676;2022-11-11T09:18:40;12.30;99.90
37086;DHT22;23001;45.952;12.676;2022-11-11T09:21:06;12.40;99.90
37086;DHT22;23001;45.952;12.676;2022-11-11T09:23:32;12.50;99.90
37086;DHT22;23001;45.952;12.676;2022-11-11T09:26:07;12.60;99.90
37086;DHT22;23001;45.952;12.676;2022-11-11T09:28:32;12.70;99.90
37086;DHT22;23001;45.952;12.676;2022-11-11T09:31:02;12.80;99.90
37086;DHT22;23001;45.952;12.676;2022-11-11T09:33:28;12.80;99.90
37086;DHT22;23001;45.952;12.676;2022-11-11T09:35:56;12.80;99.90
37086;DHT22;23001;45.952;12.676;2022-11-11T09:38:22;12.90;99.90
37086;DHT22;23001;45.952;12.676;2022-11-11T09:43:54;13.10;99.90
37086;DHT22;23001;45.952;12.676;2022-11-11T09:46:37;13.20;99.90
37086;DHT22;23001;45.952;12.676;2022-11-11T09:49:21;13.30;99.90
37086;DHT22;23001;45.952;12.676;2022-11-11T09:54:51;13.40;99.90
37086;DHT22;23001;45.952;12.676;2022-11-11T09:59:51;13.50;99.90
37086;DHT22;23001;45.952;12.676;2022-11-11T10:02:42;13.60;99.90
37086;DHT22;23001;45.952;12.676;2022-11-11T10:08:13;13.60;99.90
37086;DHT22;23001;45.952;12.676;2022-11-11T10:10:51;13.50;99.90
37086;DHT22;23001;45.952;12.676;2022-11-11T10:13:25;13.50;99.90
37086;DHT22;23001;45.952;12.676;2022-11-11T10:21:28;13.60;99.90
37086;DHT22;23001;45.952;12.676;2022-11-11T10:24:00;13.60;99.90
37086;DHT22;23001;45.952;12.676;2022-11-11T10:26:37;13.70;99.90
37086;DHT22;23001;45.952;12.676;2022-11-11T10:29:10;13.60;99.90
37086;DHT22;23001;45.952;12.676;2022-11-11T10:31:39;13.70;99.90
37086;DHT22;23001;45.952;12.676;2022-11-11T10:34:11;13.70;99.90
37086;DHT22;23001;45.952;12.676;2022-11-11T10:36:43;13.70;99.90
37086;DHT22;23001;45.952;12.676;2022-11-11T10:39:12;13.70;99.90
37086;DHT22;23001;45.952;12.676;2022-11-11T10:41:46;13.80;99.90
37086;DHT22;23001;45.952;12.676;2022-11-11T10:44:36;13.80;99.90
37086;DHT22;23001;45.952;12.676;2022-11-11T10:49:36;13.80;99.90
37086;DHT22;23001;45.952;12.676;2022-11-11T10:52:33;13.90;99.90
37086;DHT22;23001;45.952;12.676;2022-11-11T10:55:07;13.90;99.90
37086;DHT22;23001;45.952;12.676;2022-11-11T10:57:54;13.90;99.90
37086;DHT22;23001;45.952;12.676;2022-11-11T11:00:22;13.90;99.90
37086;DHT22;23001;45.952;12.676;2022-11-11T11:03:12;13.90;99.90
37086;DHT22;23001;45.952;12.676;2022-11-11T11:05:55;13.90;99.90
37086;DHT22;23001;45.952;12.676;2022-11-11T11:08:33;14.00;99.90
37086;DHT22;23001;45.952;12.676;2022-11-11T11:11:12;14.00;99.90
37086;DHT22;23001;45.952;12.676;2022-11-11T11:14:31;14.00;99.90
37086;DHT22;23001;45.952;12.676;2022-11-11T11:17:04;14.10;99.90
37086;DHT22;23001;45.952;12.676;2022-11-11T11:19:31;14.10;99.90
37086;DHT22;23001;45.952;12.676;2022-11-11T11:22:00;14.20;99.90
37086;DHT22;23001;45.952;12.676;2022-11-11T11:24:31;14.20;99.90
37086;DHT22;23001;45.952;12.676;2022-11-11T11:26:59;14.20;99.90
37086;DHT22;23001;45.952;12.676;2022-11-11T11:31:54;14.30;99.90
37086;DHT22;23001;45.952;12.676;2022-11-11T11:34:20;14.40;99.90
37086;DHT22;23001;45.952;12.676;2022-11-11T11:37:06;14.40;99.90
37086;DHT22;23001;45.952;12.676;2022-11-11T11:39:36;14.40;99.90
37086;DHT22;23001;45.952;12.676;2022-11-11T11:42:03;14.40;99.90
37086;DHT22;23001;45.952;12.676;2022-11-11T11:44:31;14.50;99.90
37086;DHT22;23001;45.952;12.676;2022-11-11T11:55:36;14.80;99.90
37086;DHT22;23001;45.952;12.676;2022-11-11T11:58:10;14.80;99.90
37086;DHT22;23001;45.952;12.676;2022-11-11T12:01:00;14.80;99.90
37086;DHT22;23001;45.952;12.676;2022-11-11T12:04:01;14.80;99.90
37086;DHT22;23001;45.952;12.676;2022-11-11T12:06:54;14.80;99.90
37086;DHT22;23001;45.952;12.676;2022-11-11T12:09:29;14.90;99.90
37086;DHT22;23001;45.952;12.676;2022-11-11T12:20:55;15.00;99.90
37086;DHT22;23001;45.952;12.676;2022-11-11T12:32:37;15.00;99.90
37086;DHT22;23001;45.952;12.676;2022-11-11T12:35:25;15.00;99.90
37086;DHT22;23001;45.952;12.676;2022-11-11T12:38:19;15.00;99.90
37086;DHT22;23001;45.952;12.676;2022-11-11T12:49:07;15.20;99.90
37086;DHT22;23001;45.952;12.676;2022-11-11T13:16:51;15.20;99.90
37086;DHT22;23001;45.952;12.676;2022-11-11T13:19:55;15.20;99.90
37086;DHT22;23001;45.952;12.676;2022-11-11T13:22:28;15.20;99.90
37086;DHT22;23001;45.952;12.676;2022-11-11T13:24:55;15.20;99.90
37086;DHT22;23001;45.952;12.676;2022-11-11T13:27:32;15.30;99.90
37086;DHT22;23001;45.952;12.676;2022-11-11T13:32:45;15.30;99.90
37086;DHT22;23001;45.952;12.676;2022-11-11T13:38:02;15.20;99.90
37086;DHT22;23001;45.952;12.676;2022-11-11T13:42:54;15.10;99.90
37086;DHT22;23001;45.952;12.676;2022-11-11T13:45:51;15.00;99.90
37086;DHT22;23001;45.952;12.676;2022-11-11T13:48:38;14.90;99.90
37086;DHT22;23001;45.952;12.676;2022-11-11T13:53:57;14.70;99.90
37086;DHT22;23001;45.952;12.676;2022-11-11T13:56:41;14.70;99.90
37086;DHT22;23001;45.952;12.676;2022-11-11T13:59:28;14.60;99.90
37086;DHT22;23001;45.952;12.676;2022-11-11T14:15:39;14.50;99.90
37086;DHT22;23001;45.952;12.676;2022-11-11T14:20:41;14.30;99.90
37086;DHT22;23001;45.952;12.676;2022-11-11T14:23:30;14.30;99.90
37086;DHT22;23001;45.952;12.676;2022-11-11T14:34:36;14.30;99.90
37086;DHT22;23001;45.952;12.676;2022-11-11T14:39:46;14.20;99.90
37086;DHT22;23001;45.952;12.676;2022-11-11T14:44:58;14.10;99.90
37086;DHT22;23001;45.952;12.676;2022-11-11T14:47:31;13.90;99.90
37086;DHT22;23001;45.952;12.676;2022-11-11T14:49:58;13.90;99.90
37086;DHT22;23001;45.952;12.676;2022-11-11T14:52:40;13.80;99.90
37086;DHT22;23001;45.952;12.676;2022-11-11T14:55:22;13.80;99.90
37086;DHT22;23001;45.952;12.676;2022-11-11T15:00:23;13.60;99.90
37086;DHT22;23001;45.952;12.676;2022-11-11T15:03:01;13.60;99.90
37086;DHT22;23001;45.952;12.676;2022-11-11T15:19:46;13.30;99.90
37086;DHT22;23001;45.952;12.676;2022-11-11T15:30:58;13.00;99.90
37086;DHT22;23001;45.952;12.676;2022-11-11T15:36:30;12.90;99.90
37086;DHT22;23001;45.952;12.676;2022-11-11T15:39:04;12.80;99.90
37086;DHT22;23001;45.952;12.676;2022-11-11T15:41:36;12.80;99.90
37086;DHT22;23001;45.952;12.676;2022-11-11T15:44:29;12.80;99.90
37086;DHT22;23001;45.952;12.676;2022-11-11T15:46:57;12.70;99.90
37086;DHT22;23001;45.952;12.676;2022-11-11T15:49:44;12.70;99.90
37086;DHT22;23001;45.952;12.676;2022-11-11T15:52:32;12.70;99.90
37086;DHT22;23001;45.952;12.676;2022-11-11T15:54:59;12.60;99.90
37086;DHT22;23001;45.952;12.676;2022-11-11T15:59:53;12.60;99.90
37086;DHT22;23001;45.952;12.676;2022-11-11T16:02:25;12.50;99.90
37086;DHT22;23001;45.952;12.676;2022-11-11T16:04:58;12.40;99.90
37086;DHT22;23001;45.952;12.676;2022-11-11T16:07:28;12.30;99.90
37086;DHT22;23001;45.952;12.676;2022-11-11T16:09:57;12.30;99.90
37086;DHT22;23001;45.952;12.676;2022-11-11T16:12:31;12.20;99.90
37086;DHT22;23001;45.952;12.676;2022-11-11T16:15:03;12.10;99.90
37086;DHT22;23001;45.952;12.676;2022-11-11T16:17:41;12.10;99.90
37086;DHT22;23001;45.952;12.676;2022-11-11T16:23:07;12.00;99.90
37086;DHT22;23001;45.952;12.676;2022-11-11T16:25:41;12.00;99.90
37086;DHT22;23001;45.952;12.676;2022-11-11T16:28:10;12.00;99.90
37086;DHT22;23001;45.952;12.676;2022-11-11T16:30:36;11.90;99.90
37086;DHT22;23001;45.952;12.676;2022-11-11T16:33:03;11.90;99.90
37086;DHT22;23001;45.952;12.676;2022-11-11T16:35:36;11.80;99.90
37086;DHT22;23001;45.952;12.676;2022-11-11T16:38:05;11.70;99.90
37086;DHT22;23001;45.952;12.676;2022-11-11T16:49:43;11.70;99.90
37086;DHT22;23001;45.952;12.676;2022-11-11T16:52:14;11.70;99.90
37086;DHT22;23001;45.952;12.676;2022-11-11T16:54:53;11.60;99.90
37086;DHT22;23001;45.952;12.676;2022-11-11T17:01:41;11.50;99.90
37086;DHT22;23001;45.952;12.676;2022-11-11T17:04:08;11.50;99.90
37086;DHT22;23001;45.952;12.676;2022-11-11T17:06:51;11.50;99.90
37086;DHT22;23001;45.952;12.676;2022-11-11T17:11:59;11.40;99.90
37086;DHT22;23001;45.952;12.676;2022-11-11T17:14:30;11.40;99.90
37086;DHT22;23001;45.952;12.676;2022-11-11T17:17:05;11.30;99.90
37086;DHT22;23001;45.952;12.676;2022-11-11T17:19:35;11.30;99.90
37086;DHT22;23001;45.952;12.676;2022-11-11T17:25:15;11.30;99.90
37086;DHT22;23001;45.952;12.676;2022-11-11T17:27:41;11.20;99.90
37086;DHT22;23001;45.952;12.676;2022-11-11T17:30:08;11.30;99.90
37086;DHT22;23001;45.952;12.676;2022-11-11T17:32:34;11.30;99.90
37086;DHT22;23001;45.952;12.676;2022-11-11T17:35:00;11.30;99.90
37086;DHT22;23001;45.952;12.676;2022-11-11T17:37:26;11.20;99.90
37086;DHT22;23001;45.952;12.676;2022-11-11T17:39:52;11.20;99.90
37086;DHT22;23001;45.952;12.676;2022-11-11T17:42:17;11.10;99.90
37086;DHT22;23001;45.952;12.676;2022-11-11T17:44:43;11.10;99.90
37086;DHT22;23001;45.952;12.676;2022-11-11T17:47:09;11.20;99.90
37086;DHT22;23001;45.952;12.676;2022-11-11T17:49:34;11.20;99.90
37086;DHT22;23001;45.952;12.676;2022-11-11T17:52:00;11.10;99.90
37086;DHT22;23001;45.952;12.676;2022-11-11T17:54:26;11.00;99.90
37086;DHT22;23001;45.952;12.676;2022-11-11T17:56:53;11.00;99.90
37086;DHT22;23001;45.952;12.676;2022-11-11T17:59:22;11.00;99.90
37086;DHT22;23001;45.952;12.676;2022-11-11T18:01:50;11.00;99.90
37086;DHT22;23001;45.952;12.676;2022-11-11T18:04:16;10.90;99.90
37086;DHT22;23001;45.952;12.676;2022-11-11T18:06:41;10.90;99.90
37086;DHT22;23001;45.952;12.676;2022-11-11T18:09:07;10.80;99.90
37086;DHT22;23001;45.952;12.676;2022-11-11T18:11:34;10.80;99.90
37086;DHT22;23001;45.952;12.676;2022-11-11T18:14:00;10.70;99.90
37086;DHT22;23001;45.952;12.676;2022-11-11T18:16:26;10.80;99.90
37086;DHT22;23001;45.952;12.676;2022-11-11T18:18:52;10.70;99.90
37086;DHT22;23001;45.952;12.676;2022-11-11T18:21:18;10.70;99.90
37086;DHT22;23001;45.952;12.676;2022-11-11T18:23:46;10.80;99.90
37086;DHT22;23001;45.952;12.676;2022-11-11T18:26:12;10.80;99.90
37086;DHT22;23001;45.952;12.676;2022-11-11T18:28:37;10.80;99.90
37086;DHT22;23001;45.952;12.676;2022-11-11T18:31:04;10.70;99.90
37086;DHT22;23001;45.952;12.676;2022-11-11T18:33:39;10.70;99.90
37086;DHT22;23001;45.952;12.676;2022-11-11T18:36:11;10.60;99.90
37086;DHT22;23001;45.952;12.676;2022-11-11T18:38:38;10.50;99.90
37086;DHT22;23001;45.952;12.676;2022-11-11T18:41:22;10.50;99.90
37086;DHT22;23001;45.952;12.676;2022-11-11T18:43:49;10.50;99.90
37086;DHT22;23001;45.952;12.676;2022-11-11T18:46:24;10.50;99.90
37086;DHT22;23001;45.952;12.676;2022-11-11T18:48:57;10.50;99.90
37086;DHT22;23001;45.952;12.676;2022-11-11T18:51:25;10.50;99.90
37086;DHT22;23001;45.952;12.676;2022-11-11T18:53:51;10.50;99.90